Terminal Aerodrome Forecast
Issued by NWS Albuquerque, NM

Home | Current Version | Previous Version | Text Only | Print | Product List | Glossary On
Versions: 1 2 3 4 5 6 7 8 9 10 11 12 13
000
FTUS45 KABQ 191139
TAFABQ
TAF
KABQ 191139Z 1912/2012 36008KT P6SM BKN200
     FM191500 19006KT P6SM BKN120
     FM192200 19011KT P6SM VCSH BKN100
      TEMPO 2000/2002 VRB20G33KT -TSRA BKN080CB
     FM200300 15008KT P6SM VCSH BKN080
     FM200600 12005KT P6SM FEW035=

USA.gov is the U.S. government's official web portal to all federal, state and local government web resources and services.